createdAt,value
2022-10-23T00:00:40.574Z,999.38
2022-10-23T00:01:40.526Z,999.37
2022-10-23T00:02:40.948Z,999.36
2022-10-23T00:03:40.514Z,999.32
2022-10-23T00:04:40.519Z,999.35
2022-10-23T00:05:40.497Z,999.35
2022-10-23T00:06:40.479Z,999.32
2022-10-23T00:07:40.467Z,999.33
2022-10-23T00:08:40.458Z,999.36
2022-10-23T00:09:40.538Z,999.33
2022-10-23T00:10:40.458Z,999.35
2022-10-23T00:11:40.454Z,999.37
2022-10-23T00:12:40.799Z,999.28
2022-10-23T00:13:40.441Z,999.29
2022-10-23T00:14:40.434Z,999.26
2022-10-23T00:15:40.471Z,999.23
2022-10-23T00:16:40.434Z,999.19
2022-10-23T00:17:40.711Z,999.20
2022-10-23T00:18:40.431Z,999.26
2022-10-23T00:19:40.399Z,999.23
2022-10-23T00:20:40.402Z,999.22
2022-10-23T00:21:40.418Z,999.27
2022-10-23T00:22:40.382Z,999.18
2022-10-23T00:23:40.375Z,999.27
2022-10-23T00:24:40.372Z,999.19
2022-10-23T00:25:40.362Z,999.27
2022-10-23T00:26:40.378Z,999.21
2022-10-23T00:27:40.646Z,999.24
2022-10-23T00:28:40.349Z,999.26
2022-10-23T00:29:40.374Z,999.23
2022-10-23T00:30:41.316Z,999.24
2022-10-23T00:31:40.347Z,999.21
2022-10-23T00:32:44.006Z,999.22
2022-10-23T00:33:40.308Z,999.25
2022-10-23T00:34:40.300Z,999.25
2022-10-23T00:35:40.297Z,999.25
2022-10-23T00:36:40.293Z,999.24
2022-10-23T00:37:40.657Z,999.29
2022-10-23T00:38:40.276Z,999.25
2022-10-23T00:39:40.261Z,999.23
2022-10-23T00:40:40.298Z,999.28
2022-10-23T00:41:40.254Z,999.29
2022-10-23T00:42:40.515Z,999.29
2022-10-23T00:43:40.261Z,999.26
2022-10-23T00:44:40.246Z,999.31
2022-10-23T00:45:40.260Z,999.22
2022-10-23T00:46:40.214Z,999.24
2022-10-23T00:47:40.209Z,999.22
2022-10-23T00:48:40.237Z,999.30
2022-10-23T00:49:42.701Z,999.35
2022-10-23T00:50:40.188Z,999.33
2022-10-23T00:51:40.171Z,999.28
2022-10-23T00:52:40.478Z,999.29
2022-10-23T00:53:40.193Z,999.30
2022-10-23T00:54:40.167Z,999.28
2022-10-23T00:55:40.159Z,999.25
2022-10-23T00:56:40.139Z,999.21
2022-10-23T00:57:40.153Z,999.27
2022-10-23T00:58:40.133Z,999.21
2022-10-23T00:59:40.136Z,999.26
2022-10-23T01:00:40.124Z,999.23
2022-10-23T01:01:40.280Z,999.25
2022-10-23T01:02:40.349Z,999.26
2022-10-23T01:03:40.128Z,999.26
2022-10-23T01:04:40.104Z,999.23
2022-10-23T01:05:40.118Z,999.23
2022-10-23T01:06:40.080Z,999.18
2022-10-23T01:07:40.348Z,999.19
2022-10-23T01:08:40.063Z,999.23
2022-10-23T01:09:40.083Z,999.13
2022-10-23T01:10:40.076Z,999.18
2022-10-23T01:11:40.052Z,999.16
2022-10-23T01:12:40.052Z,999.12
2022-10-23T01:13:40.056Z,999.18
2022-10-23T01:14:40.060Z,999.24
2022-10-23T01:15:40.031Z,999.18
2022-10-23T01:16:40.032Z,999.21
2022-10-23T01:17:42.460Z,999.19
2022-10-23T01:18:40.030Z,999.19
2022-10-23T01:19:40.005Z,999.20
2022-10-23T01:20:40.006Z,999.23
2022-10-23T01:21:39.996Z,999.21
2022-10-23T01:22:41.381Z,999.16
2022-10-23T01:23:39.992Z,999.19
2022-10-23T01:25:12.450Z,999.16
2022-10-23T01:25:39.969Z,999.12
2022-10-23T01:26:40.004Z,999.05
2022-10-23T01:27:39.953Z,999.04
2022-10-23T01:28:39.956Z,999.07
2022-10-23T01:29:39.976Z,999.01
2022-10-23T01:30:42.940Z,999.10
2022-10-23T01:31:40.716Z,999.11
2022-10-23T01:32:40.172Z,999.09
2022-10-23T01:33:39.916Z,999.05
2022-10-23T01:34:39.942Z,999.03
2022-10-23T01:35:39.912Z,999.01
2022-10-23T01:36:39.931Z,998.99
2022-10-23T01:37:39.890Z,999.03
2022-10-23T01:38:39.877Z,999.00
2022-10-23T01:39:40.214Z,998.97
2022-10-23T01:40:40.705Z,998.97
2022-10-23T01:41:39.860Z,998.95
2022-10-23T01:42:40.011Z,998.97
2022-10-23T01:43:39.863Z,998.97
2022-10-23T01:44:39.842Z,999.00
2022-10-23T01:45:39.879Z,999.07
2022-10-23T01:46:39.846Z,999.06
2022-10-23T01:47:39.985Z,999.10
2022-10-23T01:48:39.850Z,999.06
2022-10-23T01:49:39.818Z,999.10
2022-10-23T01:50:39.840Z,999.03
2022-10-23T01:51:39.817Z,999.05
2022-10-23T01:52:39.792Z,999.00
2022-10-23T01:53:39.784Z,999.03
2022-10-23T01:54:39.812Z,999.02
2022-10-23T01:55:39.825Z,998.98
2022-10-23T01:56:39.889Z,998.87
2022-10-23T01:57:39.976Z,999.01
2022-10-23T01:58:39.772Z,998.96
2022-10-23T01:59:39.743Z,998.96
2022-10-23T02:00:39.752Z,998.96
2022-10-23T02:01:39.809Z,998.98
2022-10-23T02:02:39.752Z,998.95
2022-10-23T02:03:39.716Z,998.97
2022-10-23T02:04:39.729Z,998.96
2022-10-23T02:05:39.722Z,998.98
2022-10-23T02:06:39.737Z,998.94
2022-10-23T02:07:39.980Z,998.94
2022-10-23T02:08:39.713Z,999.08
2022-10-23T02:09:39.752Z,999.05
2022-10-23T02:10:39.704Z,999.00
2022-10-23T02:11:39.692Z,999.04
2022-10-23T02:12:39.669Z,999.01
2022-10-23T02:13:39.677Z,999.01
2022-10-23T02:14:39.661Z,998.98
2022-10-23T02:15:39.721Z,998.97
2022-10-23T02:16:39.654Z,999.00
2022-10-23T02:17:39.841Z,999.02
2022-10-23T02:18:40.227Z,999.10
2022-10-23T02:19:39.642Z,999.07
2022-10-23T02:20:39.734Z,999.07
2022-10-23T02:21:40.627Z,999.08
2022-10-23T02:22:39.861Z,999.05
2022-10-23T02:23:39.606Z,999.07
2022-10-23T02:24:39.602Z,999.06
2022-10-23T02:25:39.610Z,999.06
2022-10-23T02:26:39.632Z,999.02
2022-10-23T02:27:39.619Z,999.00
2022-10-23T02:28:39.568Z,998.97
2022-10-23T02:29:39.598Z,998.90
2022-10-23T02:30:39.577Z,998.91
2022-10-23T02:31:39.557Z,998.79
2022-10-23T02:32:39.797Z,998.82
2022-10-23T02:33:39.564Z,998.78
2022-10-23T02:34:39.538Z,998.83
2022-10-23T02:35:40.229Z,998.76
2022-10-23T02:36:39.537Z,998.81
2022-10-23T02:37:39.751Z,998.80
2022-10-23T02:38:39.535Z,998.74
2022-10-23T02:39:39.511Z,998.72
2022-10-23T02:40:39.494Z,998.59
2022-10-23T02:41:40.241Z,998.64
2022-10-23T02:42:39.514Z,998.68
2022-10-23T02:43:39.502Z,998.62
2022-10-23T02:44:39.501Z,998.67
2022-10-23T02:46:39.490Z,998.63
2022-10-23T02:47:39.656Z,998.63
2022-10-23T02:48:39.457Z,998.69
2022-10-23T02:49:40.099Z,998.64
2022-10-23T02:50:39.507Z,998.66
2022-10-23T02:51:39.421Z,998.67
2022-10-23T02:52:39.438Z,998.67
2022-10-23T02:53:39.422Z,998.70
2022-10-23T02:54:39.449Z,998.70
2022-10-23T02:55:39.442Z,998.69
2022-10-23T02:56:39.410Z,998.61
2022-10-23T02:57:39.555Z,998.59
2022-10-23T02:58:39.389Z,998.58
2022-10-23T02:59:39.377Z,998.60
2022-10-23T03:00:39.409Z,998.54
2022-10-23T03:01:39.460Z,998.56
2022-10-23T03:02:39.374Z,998.51
2022-10-23T03:03:39.362Z,998.50
2022-10-23T03:04:39.427Z,998.52
2022-10-23T03:05:39.353Z,998.54
2022-10-23T03:06:39.365Z,998.56
2022-10-23T03:07:39.444Z,998.50
2022-10-23T03:08:39.325Z,998.52
2022-10-23T03:09:39.334Z,998.45
2022-10-23T03:10:39.378Z,998.47
2022-10-23T03:11:39.320Z,998.45
2022-10-23T03:12:39.576Z,998.47
2022-10-23T03:13:39.325Z,998.40
2022-10-23T03:14:39.274Z,998.43
2022-10-23T03:15:39.294Z,998.48
2022-10-23T03:16:42.224Z,998.45
2022-10-23T03:17:39.285Z,998.41
2022-10-23T03:18:39.256Z,998.46
2022-10-23T03:19:39.288Z,998.40
2022-10-23T03:20:39.439Z,998.42
2022-10-23T03:21:39.252Z,998.46
2022-10-23T03:22:39.240Z,998.49
2022-10-23T03:23:39.248Z,998.51
2022-10-23T03:24:39.248Z,998.50
2022-10-23T03:25:39.228Z,998.53
2022-10-23T03:26:39.250Z,998.55
2022-10-23T03:27:39.199Z,998.50
2022-10-23T03:28:40.198Z,998.50
2022-10-23T03:29:39.211Z,998.45
2022-10-23T03:30:39.191Z,998.45
2022-10-23T03:31:39.183Z,998.48
2022-10-23T03:32:39.200Z,998.49
2022-10-23T03:33:39.170Z,998.48
2022-10-23T03:34:39.176Z,998.48
2022-10-23T03:35:39.226Z,998.49
2022-10-23T03:36:39.143Z,998.39
2022-10-23T03:37:39.151Z,998.44
2022-10-23T03:38:39.137Z,998.42
2022-10-23T03:39:39.152Z,998.39
2022-10-23T03:40:39.127Z,998.36
2022-10-23T03:41:39.135Z,998.36
2022-10-23T03:42:39.112Z,998.38
2022-10-23T03:43:40.136Z,998.34
2022-10-23T03:44:39.120Z,998.40
2022-10-23T03:45:39.104Z,998.41
2022-10-23T03:46:39.091Z,998.35
2022-10-23T03:47:39.170Z,998.37
2022-10-23T03:48:39.093Z,998.37
2022-10-23T03:49:39.712Z,998.42
2022-10-23T03:50:39.056Z,998.38
2022-10-23T03:51:39.060Z,998.44
2022-10-23T03:52:39.288Z,998.40
2022-10-23T03:53:39.048Z,998.41
2022-10-23T03:54:39.023Z,998.43
2022-10-23T03:55:39.031Z,998.45
2022-10-23T03:56:39.016Z,998.44
2022-10-23T03:57:39.027Z,998.38
2022-10-23T03:58:40.004Z,998.38
2022-10-23T03:59:39.033Z,998.36
2022-10-23T04:00:40.070Z,998.32
2022-10-23T04:01:39.066Z,998.31
2022-10-23T04:02:39.092Z,998.25
2022-10-23T04:03:38.994Z,998.27
2022-10-23T04:04:38.958Z,998.23
2022-10-23T04:05:39.989Z,998.22
2022-10-23T04:06:38.967Z,998.18
2022-10-23T04:07:38.951Z,998.19
2022-10-23T04:08:38.962Z,998.13
2022-10-23T04:09:38.909Z,998.22
2022-10-23T04:10:39.937Z,998.12
2022-10-23T04:11:38.956Z,998.13
2022-10-23T04:12:38.915Z,998.12
2022-10-23T04:13:38.907Z,998.24
2022-10-23T04:14:38.907Z,998.17
2022-10-23T04:15:38.928Z,998.22
2022-10-23T04:16:38.884Z,998.24
2022-10-23T04:17:38.879Z,998.24
2022-10-23T04:18:38.948Z,998.21
2022-10-23T04:19:38.871Z,998.25
2022-10-23T04:20:38.887Z,998.23
2022-10-23T04:21:38.871Z,998.25
2022-10-23T04:22:38.840Z,998.21
2022-10-23T04:23:38.879Z,998.25
2022-10-23T04:24:38.839Z,998.20
2022-10-23T04:25:38.872Z,998.15
2022-10-23T04:26:38.836Z,998.11
2022-10-23T04:27:40.307Z,998.19
2022-10-23T04:28:38.814Z,998.18
2022-10-23T04:29:38.798Z,998.19
2022-10-23T04:30:38.799Z,998.22
2022-10-23T04:31:38.788Z,998.19
2022-10-23T04:32:38.835Z,998.21
2022-10-23T04:33:38.787Z,998.24
2022-10-23T04:34:38.786Z,998.16
2022-10-23T04:35:38.755Z,998.12
2022-10-23T04:36:38.759Z,998.16
2022-10-23T04:37:38.759Z,998.16
2022-10-23T04:38:38.745Z,998.15
2022-10-23T04:39:38.740Z,998.18
2022-10-23T04:40:38.732Z,998.10
2022-10-23T04:41:40.832Z,998.12
2022-10-23T04:42:38.743Z,998.09
2022-10-23T04:43:38.703Z,998.12
2022-10-23T04:44:38.706Z,998.14
2022-10-23T04:45:38.686Z,998.06
2022-10-23T04:46:38.694Z,998.10
2022-10-23T04:47:39.644Z,998.05
2022-10-23T04:48:38.689Z,998.05
2022-10-23T04:49:38.664Z,998.05
2022-10-23T04:50:38.710Z,998.10
2022-10-23T04:51:38.683Z,998.11
2022-10-23T04:52:39.373Z,998.03
2022-10-23T04:53:39.644Z,998.11
2022-10-23T04:54:38.635Z,998.08
2022-10-23T04:55:38.648Z,998.09
2022-10-23T04:56:38.612Z,998.17
2022-10-23T04:57:39.212Z,998.17
2022-10-23T04:58:38.628Z,998.18
2022-10-23T04:59:38.611Z,998.12
2022-10-23T05:00:38.640Z,998.18
2022-10-23T05:01:38.642Z,998.15
2022-10-23T05:02:38.598Z,998.11
2022-10-23T05:03:38.572Z,998.15
2022-10-23T05:04:38.567Z,998.10
2022-10-23T05:05:38.566Z,998.12
2022-10-23T05:06:38.811Z,998.10
2022-10-23T05:07:38.543Z,998.12
2022-10-23T05:08:38.599Z,998.12
2022-10-23T05:09:38.515Z,998.15
2022-10-23T05:10:38.531Z,998.16
2022-10-23T05:11:38.518Z,998.18
2022-10-23T05:12:38.490Z,998.12
2022-10-23T05:13:39.503Z,998.07
2022-10-23T05:14:38.510Z,998.04
2022-10-23T05:15:38.570Z,998.01
2022-10-23T05:16:38.502Z,997.98
2022-10-23T05:17:38.483Z,997.89
2022-10-23T05:18:38.486Z,997.86
2022-10-23T05:19:38.466Z,997.81
2022-10-23T05:20:38.491Z,997.86
2022-10-23T05:21:38.471Z,997.82
2022-10-23T05:22:38.462Z,997.84
2022-10-23T05:23:39.195Z,997.83
2022-10-23T05:24:38.455Z,997.86
2022-10-23T05:25:39.116Z,997.91
2022-10-23T05:26:38.435Z,997.91
2022-10-23T05:27:38.413Z,997.99
2022-10-23T05:28:38.406Z,997.93
2022-10-23T05:29:38.427Z,998.04
2022-10-23T05:30:39.213Z,998.07
2022-10-23T05:31:38.382Z,998.06
2022-10-23T05:32:38.379Z,998.08
2022-10-23T05:33:38.367Z,998.10
2022-10-23T05:34:38.361Z,998.10
2022-10-23T05:35:38.382Z,998.16
2022-10-23T05:36:38.338Z,998.13
2022-10-23T05:37:38.368Z,998.13
2022-10-23T05:38:38.342Z,998.13
2022-10-23T05:39:38.334Z,998.12
2022-10-23T05:41:38.299Z,998.10
2022-10-23T05:42:40.855Z,998.07
2022-10-23T05:43:38.306Z,998.01
2022-10-23T05:44:38.327Z,997.93
2022-10-23T05:45:38.282Z,997.95
2022-10-23T05:46:38.276Z,997.85
2022-10-23T05:47:38.287Z,997.82
2022-10-23T05:48:38.291Z,997.79
2022-10-23T05:49:38.271Z,997.83
2022-10-23T05:50:38.292Z,997.76
2022-10-23T05:51:38.255Z,997.75
2022-10-23T05:52:38.235Z,997.82
2022-10-23T05:53:40.380Z,997.75
2022-10-23T05:54:38.287Z,997.80
2022-10-23T05:55:38.231Z,997.88
2022-10-23T05:56:38.223Z,997.93
2022-10-23T05:57:38.210Z,997.91
2022-10-23T05:58:38.204Z,997.90
2022-10-23T05:59:38.183Z,997.88
2022-10-23T06:00:39.214Z,997.83
2022-10-23T06:01:38.364Z,997.85
2022-10-23T06:02:38.217Z,997.81
2022-10-23T06:03:38.191Z,997.81
2022-10-23T06:04:38.166Z,997.90
2022-10-23T06:06:38.155Z,997.85
2022-10-23T06:07:38.139Z,997.92
2022-10-23T06:08:38.146Z,997.91
2022-10-23T06:09:38.127Z,997.99
2022-10-23T06:10:38.142Z,997.98
2022-10-23T06:11:38.271Z,997.93
2022-10-23T06:12:38.118Z,997.93
2022-10-23T06:13:38.095Z,997.86
2022-10-23T06:14:38.091Z,997.81
2022-10-23T06:15:38.091Z,997.88
2022-10-23T06:16:38.123Z,997.91
2022-10-23T06:17:38.078Z,997.86
2022-10-23T06:18:38.066Z,997.86
2022-10-23T06:19:38.070Z,997.81
2022-10-23T06:20:39.061Z,997.87
2022-10-23T06:21:38.054Z,997.81
2022-10-23T06:22:38.087Z,997.79
2022-10-23T06:23:38.036Z,997.82
2022-10-23T06:24:38.030Z,997.79
2022-10-23T06:25:38.049Z,997.76
2022-10-23T06:26:38.047Z,997.77
2022-10-23T06:27:38.037Z,997.77
2022-10-23T06:28:38.035Z,997.79
2022-10-23T06:29:38.037Z,997.81
2022-10-23T06:31:37.973Z,997.76
2022-10-23T06:32:37.993Z,997.78
2022-10-23T06:33:37.970Z,997.82
2022-10-23T06:34:37.945Z,997.81
2022-10-23T06:35:38.965Z,997.81
2022-10-23T06:36:37.955Z,997.88
2022-10-23T06:37:40.646Z,997.83
2022-10-23T06:38:38.734Z,997.85
2022-10-23T06:39:37.926Z,997.82
2022-10-23T06:40:37.941Z,997.82
2022-10-23T06:41:39.277Z,997.74
2022-10-23T06:42:37.958Z,997.70
2022-10-23T06:43:37.912Z,997.69
2022-10-23T06:44:37.984Z,997.69
2022-10-23T06:45:37.884Z,997.74
2022-10-23T06:46:37.877Z,997.75
2022-10-23T06:47:37.874Z,997.74
2022-10-23T06:48:37.879Z,997.75
2022-10-23T06:49:37.885Z,997.74
2022-10-23T06:50:37.853Z,997.80
2022-10-23T06:51:37.878Z,997.83
2022-10-23T06:52:47.602Z,997.83
2022-10-23T06:53:39.837Z,997.85
2022-10-23T06:54:37.830Z,997.80
2022-10-23T06:56:37.878Z,997.86
2022-10-23T06:57:37.801Z,997.86
2022-10-23T06:58:37.829Z,997.88
2022-10-23T06:59:37.838Z,997.83
2022-10-23T07:00:37.815Z,997.87
2022-10-23T07:01:41.473Z,997.84
2022-10-23T07:02:37.788Z,997.80
2022-10-23T07:03:37.893Z,997.88
2022-10-23T07:04:37.974Z,997.84
2022-10-23T07:05:38.074Z,997.83
2022-10-23T07:06:37.763Z,997.78
2022-10-23T07:07:37.741Z,997.76
2022-10-23T07:08:37.755Z,997.82
2022-10-23T07:09:38.720Z,997.84
2022-10-23T07:10:37.710Z,997.77
2022-10-23T07:11:37.718Z,997.81
2022-10-23T07:12:38.933Z,997.87
2022-10-23T07:13:38.698Z,997.82
2022-10-23T07:14:37.717Z,997.84
2022-10-23T07:15:37.692Z,997.88
2022-10-23T07:16:37.677Z,997.85
2022-10-23T07:17:37.654Z,997.84
2022-10-23T07:18:37.665Z,997.87
2022-10-23T07:19:37.665Z,997.90
2022-10-23T07:20:38.688Z,997.87
2022-10-23T07:21:37.648Z,997.84
2022-10-23T07:22:37.644Z,997.89
2022-10-23T07:23:37.633Z,997.78
2022-10-23T07:24:37.624Z,997.78
2022-10-23T07:25:37.690Z,997.82
2022-10-23T07:26:37.671Z,997.83
2022-10-23T07:27:37.603Z,997.82
2022-10-23T07:28:37.708Z,997.83
2022-10-23T07:29:37.643Z,997.80
2022-10-23T07:30:37.618Z,997.79
2022-10-23T07:31:37.572Z,997.76
2022-10-23T07:32:37.606Z,997.79
2022-10-23T07:33:37.564Z,997.68
2022-10-23T07:34:37.550Z,997.76
2022-10-23T07:35:40.407Z,997.83
2022-10-23T07:36:37.559Z,997.79
2022-10-23T07:37:37.540Z,997.74
2022-10-23T07:38:37.778Z,997.72
2022-10-23T07:39:37.519Z,997.62
2022-10-23T07:40:37.744Z,997.78
2022-10-23T07:41:37.522Z,997.75
2022-10-23T07:42:37.490Z,997.77
2022-10-23T07:43:47.809Z,997.81
2022-10-23T07:44:37.478Z,997.82
2022-10-23T07:45:37.485Z,997.85
2022-10-23T07:46:37.495Z,997.80
2022-10-23T07:47:37.474Z,997.81
2022-10-23T07:48:37.479Z,997.66
2022-10-23T07:49:37.465Z,997.67
2022-10-23T07:50:37.434Z,997.70
2022-10-23T07:51:37.465Z,997.66
2022-10-23T07:52:37.438Z,997.66
2022-10-23T07:53:37.421Z,997.70
2022-10-23T07:54:37.425Z,997.73
2022-10-23T07:55:37.409Z,997.69
2022-10-23T07:56:37.417Z,997.64
2022-10-23T07:57:37.446Z,997.60
2022-10-23T07:58:37.419Z,997.63
2022-10-23T07:59:38.134Z,997.47
2022-10-23T08:00:37.380Z,997.55
2022-10-23T08:01:37.429Z,997.56
2022-10-23T08:02:37.412Z,997.49
2022-10-23T08:03:37.345Z,997.45
2022-10-23T08:04:37.345Z,997.40
2022-10-23T08:05:37.341Z,997.45
2022-10-23T08:06:37.324Z,997.50
2022-10-23T08:07:37.752Z,997.38
2022-10-23T08:08:38.190Z,997.43
2022-10-23T08:09:37.334Z,997.44
2022-10-23T08:10:37.320Z,997.46
2022-10-23T08:11:37.310Z,997.47
2022-10-23T08:12:37.322Z,997.46
2022-10-23T08:13:37.299Z,997.48
2022-10-23T08:14:37.288Z,997.44
2022-10-23T08:15:37.291Z,997.43
2022-10-23T08:16:37.277Z,997.41
2022-10-23T08:17:37.287Z,997.50
2022-10-23T08:18:37.262Z,997.45
2022-10-23T08:19:37.264Z,997.39
2022-10-23T08:20:37.262Z,997.44
2022-10-23T08:21:37.241Z,997.42
2022-10-23T08:22:37.259Z,997.38
2022-10-23T08:23:37.297Z,997.30
2022-10-23T08:24:37.236Z,997.36
2022-10-23T08:25:37.212Z,997.37
2022-10-23T08:26:37.223Z,997.31
2022-10-23T08:27:37.212Z,997.30
2022-10-23T08:28:37.224Z,997.33
2022-10-23T08:29:37.197Z,997.28
2022-10-23T08:30:37.184Z,997.31
2022-10-23T08:31:37.179Z,997.33
2022-10-23T08:32:37.193Z,997.39
2022-10-23T08:33:37.245Z,997.30
2022-10-23T08:34:37.152Z,997.34
2022-10-23T08:35:37.179Z,997.22
2022-10-23T08:36:37.140Z,997.19
2022-10-23T08:37:37.154Z,997.18
2022-10-23T08:38:37.176Z,997.13
2022-10-23T08:39:37.137Z,997.12
2022-10-23T08:40:37.171Z,997.23
2022-10-23T08:41:37.148Z,997.15
2022-10-23T08:42:37.109Z,997.12
2022-10-23T08:43:37.125Z,997.04
2022-10-23T08:44:37.100Z,997.11
2022-10-23T08:45:37.117Z,997.15
2022-10-23T08:46:37.108Z,997.07
2022-10-23T08:47:37.104Z,997.05
2022-10-23T08:48:37.136Z,997.05
2022-10-23T08:49:37.091Z,996.99
2022-10-23T08:50:37.078Z,997.04
2022-10-23T08:51:37.094Z,997.10
2022-10-23T08:52:37.058Z,997.14
2022-10-23T08:53:37.058Z,997.09
2022-10-23T08:54:37.074Z,997.09
2022-10-23T08:55:37.050Z,997.07
2022-10-23T08:56:37.038Z,997.12
2022-10-23T08:57:40.080Z,997.18
2022-10-23T08:58:39.770Z,997.13
2022-10-23T08:59:38.077Z,997.19
2022-10-23T09:00:37.086Z,997.23
2022-10-23T09:01:37.124Z,997.27
2022-10-23T09:02:37.005Z,997.20
2022-10-23T09:03:37.013Z,997.07
2022-10-23T09:04:37.069Z,997.20
2022-10-23T09:05:37.014Z,997.17
2022-10-23T09:06:37.013Z,997.06
2022-10-23T09:07:36.977Z,997.04
2022-10-23T09:08:36.997Z,997.06
2022-10-23T09:09:36.988Z,997.15
2022-10-23T09:10:36.973Z,997.18
2022-10-23T09:11:37.025Z,997.20
2022-10-23T09:12:36.952Z,997.12
2022-10-23T09:13:36.938Z,997.28
2022-10-23T09:14:37.759Z,997.10
2022-10-23T09:15:36.923Z,997.05
2022-10-23T09:16:36.983Z,997.08
2022-10-23T09:17:36.933Z,997.06
2022-10-23T09:18:36.916Z,997.04
2022-10-23T09:19:36.951Z,997.03
2022-10-23T09:20:36.971Z,997.12
2022-10-23T09:21:36.982Z,997.11
2022-10-23T09:22:36.922Z,997.12
2022-10-23T09:23:36.879Z,997.05
2022-10-23T09:24:36.866Z,996.99
2022-10-23T09:25:36.917Z,996.91
2022-10-23T09:26:36.871Z,996.99
2022-10-23T09:27:36.854Z,996.92
2022-10-23T09:28:36.895Z,996.91
2022-10-23T09:29:36.862Z,996.78
2022-10-23T09:30:36.953Z,996.62
2022-10-23T09:31:36.823Z,996.67
2022-10-23T09:32:36.974Z,996.60
2022-10-23T09:33:36.818Z,996.59
2022-10-23T09:34:36.814Z,996.59
2022-10-23T09:35:36.798Z,996.54
2022-10-23T09:36:36.778Z,996.53
2022-10-23T09:37:36.758Z,996.49
2022-10-23T09:38:36.802Z,996.56
2022-10-23T09:39:38.690Z,996.58
2022-10-23T09:40:36.742Z,996.51
2022-10-23T09:41:36.732Z,996.56
2022-10-23T09:42:36.758Z,996.67
2022-10-23T09:43:36.743Z,996.57
2022-10-23T09:44:36.734Z,996.59
2022-10-23T09:45:36.713Z,996.47
2022-10-23T09:46:36.744Z,996.44
2022-10-23T09:47:36.698Z,996.40
2022-10-23T09:48:36.709Z,996.44
2022-10-23T09:49:36.720Z,996.48
2022-10-23T09:50:36.683Z,996.48
2022-10-23T09:51:36.888Z,996.44
2022-10-23T09:52:36.671Z,996.45
2022-10-23T09:53:36.672Z,996.41
2022-10-23T09:54:36.691Z,996.38
2022-10-23T09:55:36.663Z,996.32
2022-10-23T09:56:36.710Z,996.39
2022-10-23T09:57:36.972Z,996.30
2022-10-23T09:58:36.678Z,996.33
2022-10-23T09:59:36.629Z,996.38
2022-10-23T10:00:36.640Z,996.30
2022-10-23T10:01:36.762Z,996.26
2022-10-23T10:02:36.607Z,996.26
2022-10-23T10:03:36.592Z,996.24
2022-10-23T10:04:36.603Z,996.26
2022-10-23T10:05:36.590Z,996.37
2022-10-23T10:06:36.615Z,996.28
2022-10-23T10:07:36.897Z,996.29
2022-10-23T10:08:36.563Z,996.30
2022-10-23T10:09:36.563Z,996.36
2022-10-23T10:10:36.579Z,996.32
2022-10-23T10:11:36.583Z,996.32
2022-10-23T10:12:36.532Z,996.36
2022-10-23T10:13:36.527Z,996.34
2022-10-23T10:14:36.534Z,996.34
2022-10-23T10:15:36.725Z,996.31
2022-10-23T10:16:36.522Z,996.31
2022-10-23T10:17:36.525Z,996.22
2022-10-23T10:18:36.571Z,996.25
2022-10-23T10:19:36.483Z,996.26
2022-10-23T10:20:36.487Z,996.16
2022-10-23T10:21:36.839Z,996.16
2022-10-23T10:22:36.474Z,996.11
2022-10-23T10:23:36.500Z,996.13
2022-10-23T10:24:36.460Z,996.12
2022-10-23T10:25:36.495Z,996.14
2022-10-23T10:26:36.488Z,996.15
2022-10-23T10:27:36.440Z,996.12
2022-10-23T10:28:36.448Z,996.07
2022-10-23T10:29:36.441Z,996.10
2022-10-23T10:30:36.427Z,996.07
2022-10-23T10:31:36.424Z,996.08
2022-10-23T10:32:37.430Z,996.10
2022-10-23T10:33:36.405Z,996.17
2022-10-23T10:34:36.412Z,996.13
2022-10-23T10:35:36.389Z,996.13
2022-10-23T10:36:36.389Z,996.11
2022-10-23T10:37:36.384Z,996.13
2022-10-23T10:38:36.373Z,996.12
2022-10-23T10:39:36.360Z,996.14
2022-10-23T10:40:36.357Z,996.06
2022-10-23T10:41:36.365Z,996.09
2022-10-23T10:42:36.360Z,996.07
2022-10-23T10:43:36.341Z,996.09
2022-10-23T10:44:36.333Z,996.04
2022-10-23T10:45:36.336Z,996.07
2022-10-23T10:46:36.329Z,996.03
2022-10-23T10:47:36.333Z,995.95
2022-10-23T10:48:36.312Z,995.98
2022-10-23T10:49:36.305Z,995.90
2022-10-23T10:50:36.303Z,995.87
2022-10-23T10:51:36.300Z,995.93
2022-10-23T10:52:36.305Z,995.86
2022-10-23T10:53:36.301Z,995.80
2022-10-23T10:54:36.261Z,995.90
2022-10-23T10:55:36.369Z,995.82
2022-10-23T10:56:36.249Z,995.85
2022-10-23T10:57:36.245Z,995.83
2022-10-23T10:58:36.282Z,995.81
2022-10-23T10:59:36.236Z,995.81
2022-10-23T11:00:36.273Z,995.78
2022-10-23T11:01:36.331Z,995.79
2022-10-23T11:02:36.216Z,995.76
2022-10-23T11:03:39.191Z,995.70
2022-10-23T11:04:36.226Z,995.73
2022-10-23T11:05:36.241Z,995.75
2022-10-23T11:06:36.222Z,995.62
2022-10-23T11:07:36.187Z,995.70
2022-10-23T11:08:44.622Z,995.62
2022-10-23T11:09:38.196Z,995.59
2022-10-23T11:10:36.252Z,995.57
2022-10-23T11:11:36.163Z,995.64
2022-10-23T11:12:36.155Z,995.60
2022-10-23T11:13:36.182Z,995.56
2022-10-23T11:14:36.150Z,995.62
2022-10-23T11:15:36.156Z,995.57
2022-10-23T11:16:36.126Z,995.56
2022-10-23T11:17:36.177Z,995.58
2022-10-23T11:18:36.127Z,995.53
2022-10-23T11:19:36.122Z,995.47
2022-10-23T11:20:36.258Z,995.44
2022-10-23T11:21:36.123Z,995.49
2022-10-23T11:22:36.094Z,995.46
2022-10-23T11:23:36.108Z,995.46
2022-10-23T11:24:36.099Z,995.45
2022-10-23T11:25:36.126Z,995.42
2022-10-23T11:26:36.074Z,995.45
2022-10-23T11:27:37.067Z,995.41
2022-10-23T11:28:36.059Z,995.34
2022-10-23T11:29:36.059Z,995.29
2022-10-23T11:30:36.155Z,995.29
2022-10-23T11:31:36.044Z,995.25
2022-10-23T11:32:36.062Z,995.23
2022-10-23T11:33:36.038Z,995.18
2022-10-23T11:34:36.024Z,995.25
2022-10-23T11:35:36.030Z,995.24
2022-10-23T11:36:36.033Z,995.24
2022-10-23T11:37:36.019Z,995.19
2022-10-23T11:38:36.006Z,995.18
2022-10-23T11:39:35.990Z,995.15
2022-10-23T11:40:35.987Z,995.17
2022-10-23T11:41:36.024Z,995.11
2022-10-23T11:42:35.983Z,995.14
2022-10-23T11:43:35.968Z,995.08
2022-10-23T11:44:35.990Z,995.08
2022-10-23T11:45:35.972Z,995.06
2022-10-23T11:46:35.975Z,995.06
2022-10-23T11:47:39.687Z,994.97
2022-10-23T11:48:36.942Z,994.98
2022-10-23T11:49:35.944Z,994.94
2022-10-23T11:50:35.959Z,995.00
2022-10-23T11:51:35.922Z,995.04
2022-10-23T11:52:42.047Z,995.07
2022-10-23T11:53:37.934Z,995.08
2022-10-23T11:54:35.902Z,995.05
2022-10-23T11:55:35.882Z,995.03
2022-10-23T11:56:35.895Z,995.09
2022-10-23T11:57:35.893Z,995.07
2022-10-23T11:58:35.876Z,995.06
2022-10-23T11:59:35.858Z,994.99
2022-10-23T12:00:35.880Z,994.97
2022-10-23T12:01:35.986Z,994.87
2022-10-23T12:02:35.892Z,994.95
2022-10-23T12:03:35.867Z,994.92
2022-10-23T12:04:35.839Z,994.91
2022-10-23T12:05:36.819Z,994.97
2022-10-23T12:06:35.830Z,994.89
2022-10-23T12:07:35.802Z,994.93
2022-10-23T12:08:35.804Z,994.91
2022-10-23T12:09:35.820Z,994.87
2022-10-23T12:10:35.779Z,994.89
2022-10-23T12:11:35.812Z,994.89
2022-10-23T12:12:35.774Z,994.84
2022-10-23T12:13:35.787Z,994.91
2022-10-23T12:14:35.778Z,994.86
2022-10-23T12:15:35.763Z,994.87
2022-10-23T12:16:35.774Z,994.90
2022-10-23T12:17:35.750Z,994.88
2022-10-23T12:18:35.735Z,994.90
2022-10-23T12:19:35.766Z,994.85
2022-10-23T12:20:35.722Z,994.81
2022-10-23T12:21:35.743Z,994.82
2022-10-23T12:22:36.746Z,994.84
2022-10-23T12:23:35.770Z,994.71
2022-10-23T12:24:35.713Z,994.74
2022-10-23T12:25:35.694Z,994.71
2022-10-23T12:26:35.682Z,994.71
2022-10-23T12:27:35.718Z,994.73
2022-10-23T12:28:35.678Z,994.70
2022-10-23T12:29:35.690Z,994.70
2022-10-23T12:30:35.675Z,994.72
2022-10-23T12:31:35.654Z,994.72
2022-10-23T12:32:35.650Z,994.64
2022-10-23T12:33:35.634Z,994.67